首页
METAR-TAF:

METAR-TAF

机场 :

伊魁特機場

伊魁特, 努那武特, 加拿大

纬度: 63-45N, 经度: 068-33W, 海拔: 34米

当前天气观测

该预报发布于27分钟前的01:00 UTC
风速13节,风向北转西北
温度 -28°C
湿度 75%
气压 1022 hPa
能見度: 24.1公里
天空无云
冰针, 低吹雪

METAR: CYFB 110100Z 33013KT 15SM IC DRSN SKC M28/M31 A3018 RMK IC2 SLP228

时间: 20:27 (01:27 UTC)

预报

该预报发布于1小时和49分钟前的23:38 UTC
预报有效从11日的 00点(UTC)到 11日的 24点(UTC)
风速15节,风向北转西北
能見度: 10公里
少量云层高于1500英尺
短暂存在
从 11日的 00点(UTC)到 11日的 08点(UTC)
能見度: 10公里
多云层高于1500英尺
小雪
从 11日的 0800点(UTC)
风速15节,风向北转西北
能見度: 10公里
少量云层高于1000英尺

TAF: CYFB 102338Z 1100/1124 33015KT P6SM FEW015 TEMPO 1100/1108 P6SM -SN BKN015 FM110800 33015KT P6SM FEW010 RMK NXT FCST BY 110600Z

超过4000个机场的气象观测和天气预报(METAR&TAF报告)。

可查询的气象台以黄色和红色小点在地图上表示。

将鼠标移到小点上方,可查看气象台名称。

然后点击查看天气观测和预报。

如需切换地图:点击带黑十字的绿色按钮放大地图;点击带横线的绿色按钮缩小地图;或者点击绿色箭头查看邻近地区的地图。


METAR-TAF: